Woodson, Illinois
Current Conditions -  °F | °C
As of 6:15 PM on Wednesday 26 Nov 2014 (Local Time) from KIJX Reporting Station
Unknown Precip Unknown Precip  
Wind Chill: 25°   Ceiling: 600
Heat Index: 32°   Visibility: 2mi
Dew Point: 31°   Wind: 8mph
Humidity: 95%   Direction: 60°ENE
Pressure: 30.07"   Gusts: NA
Location:  39.63°N, 90.22°W
Report Text: KIJX 270015Z AUTO 06007KT 2SM UP BKN006 OVC011 00/M01 A3007 RMK AO2 T00001007
Loading
Personal Weather Stations






























Interactive Weather Map New forecast layout! Learn more

10-Day Weather Forecast

Advertisements
Track Severe Weather on mobile